Time;durP1;ratioP1;P1;durP2;ratioP2;P2;SDS_P1;SDS_P2;PMS_P1;PMS_P2;Temp;Humidity;BMP_temperature;BMP_pressure;BME280_temperature;BME280_humidity;BME280_pressure;Samples;Min_cycle;Max_cycle;Signal;HPM_P1;HPM_P2
2023/09/10 00:00:38;;;;;;;20.95;18.65;;;;;;;;;;2071658;28;20116;-59
2023/09/10 00:01:58;;;;;;;20.30;18.17;;;;;;;;;;2070554;28;20025;-59
2023/09/10 00:03:17;;;;;;;21.30;19.02;;;;;;;;;;2062995;28;20026;-60
2023/09/10 00:04:36;;;;;;;21.90;19.42;;;;;;;;;;2068320;28;20521;-59
2023/09/10 00:05:55;;;;;;;23.77;20.00;;;;;;;;;;2069209;28;20030;-60
2023/09/10 00:07:14;;;;;;;22.45;20.13;;;;;;;;;;2069819;28;20069;-60
2023/09/10 00:08:34;;;;;;;22.98;20.55;;;;;;;;;;2070634;28;20018;-59
2023/09/10 00:09:53;;;;;;;20.90;18.75;;;;;;;;;;2070291;28;20053;-59
2023/09/10 00:11:12;;;;;;;20.35;18.23;;;;;;;;;;2071495;28;20486;-59
2023/09/10 00:12:31;;;;;;;25.90;21.67;;;;;;;;;;2067382;28;20034;-59
2023/09/10 00:13:50;;;;;;;20.52;18.45;;;;;;;;;;2071867;28;20034;-58
2023/09/10 00:15:09;;;;;;;22.30;19.75;;;;;;;;;;2072174;28;20050;-60
2023/09/10 00:16:28;;;;;;;23.83;20.17;;;;;;;;;;2071812;28;20038;-59
2023/09/10 00:17:47;;;;;;;20.23;18.10;;;;;;;;;;2071346;28;20120;-59
2023/09/10 00:19:05;;;;;;;25.58;21.65;;;;;;;;;;2070694;28;20479;-58
2023/09/10 00:20:26;;;;;;;23.38;20.73;;;;;;;;;;2072035;28;20029;-58
2023/09/10 00:21:45;;;;;;;26.08;20.90;;;;;;;;;;2071586;28;20161;-59
2023/09/10 00:23:04;;;;;;;22.95;19.80;;;;;;;;;;2070423;28;20041;-60
2023/09/10 00:24:24;;;;;;;19.75;17.75;;;;;;;;;;2070945;28;20106;-59
2023/09/10 00:25:43;;;;;;;18.45;16.52;;;;;;;;;;2071593;28;20542;-60
2023/09/10 00:27:02;;;;;;;21.38;18.95;;;;;;;;;;2070797;28;20046;-59
2023/09/10 00:28:21;;;;;;;22.13;19.58;;;;;;;;;;2069551;28;20495;-59
2023/09/10 00:29:40;;;;;;;22.00;19.77;;;;;;;;;;2070306;28;20470;-59
2023/09/10 00:30:59;;;;;;;20.75;18.65;;;;;;;;;;2072785;28;20105;-59
2023/09/10 00:32:18;;;;;;;21.23;19.08;;;;;;;;;;2070107;28;20038;-59
2023/09/10 00:33:37;;;;;;;22.20;19.90;;;;;;;;;;2072379;28;20034;-59
2023/09/10 00:34:56;;;;;;;22.23;19.90;;;;;;;;;;2072125;28;20038;-59
2023/09/10 00:36:15;;;;;;;24.55;19.67;;;;;;;;;;2071116;28;20042;-60
2023/09/10 00:37:34;;;;;;;21.23;17.73;;;;;;;;;;2071604;28;20072;-59
2023/09/10 00:38:53;;;;;;;20.58;18.33;;;;;;;;;;2071626;28;20046;-58
2023/09/10 00:40:12;;;;;;;20.75;17.95;;;;;;;;;;2071548;28;20038;-59
2023/09/10 00:41:31;;;;;;;23.05;18.98;;;;;;;;;;2070776;28;20466;-60
2023/09/10 00:42:50;;;;;;;20.88;18.27;;;;;;;;;;2069007;28;20038;-60
2023/09/10 00:44:09;;;;;;;19.25;17.33;;;;;;;;;;2070985;28;20022;-59
2023/09/10 00:45:29;;;;;;;21.63;19.25;;;;;;;;;;2070098;28;20026;-59
2023/09/10 00:46:49;;;;;;;21.50;19.25;;;;;;;;;;2069877;28;20038;-59
2023/09/10 00:48:08;;;;;;;22.42;20.08;;;;;;;;;;2072248;28;20014;-59
2023/09/10 00:49:27;;;;;;;18.85;17.05;;;;;;;;;;2071977;28;20026;-60
2023/09/10 00:50:46;;;;;;;19.55;17.10;;;;;;;;;;2070335;28;20026;-59
2023/09/10 00:52:05;;;;;;;19.38;17.35;;;;;;;;;;2069142;28;20034;-59
2023/09/10 00:53:25;;;;;;;19.52;16.45;;;;;;;;;;2067549;28;21325;-58
2023/09/10 00:54:44;;;;;;;20.30;18.15;;;;;;;;;;2070646;28;20117;-59
2023/09/10 00:56:03;;;;;;;20.52;18.42;;;;;;;;;;2071300;28;20034;-60
2023/09/10 00:57:24;;;;;;;20.95;18.77;;;;;;;;;;2062486;28;20042;-59
2023/09/10 00:58:43;;;;;;;19.60;17.80;;;;;;;;;;2065859;28;20026;-59
2023/09/10 01:00:05;;;;;;;18.15;16.40;;;;;;;;;;2071280;28;20108;-58
2023/09/10 01:01:24;;;;;;;21.08;17.40;;;;;;;;;;2062950;28;20039;-59
2023/09/10 01:02:44;;;;;;;24.42;20.13;;;;;;;;;;2067266;28;20038;-60
2023/09/10 01:04:03;;;;;;;19.60;17.60;;;;;;;;;;2063198;28;20041;-59
2023/09/10 01:05:21;;;;;;;24.63;20.30;;;;;;;;;;2067858;28;20025;-59
2023/09/10 01:06:41;;;;;;;22.65;20.33;;;;;;;;;;2070107;28;20030;-60
2023/09/10 01:08:01;;;;;;;18.83;16.92;;;;;;;;;;2070394;28;20025;-60
2023/09/10 01:09:19;;;;;;;18.73;16.83;;;;;;;;;;2070343;28;20022;-58
2023/09/10 01:10:45;;;;;;;20.65;18.63;;;;;;;;;;2070734;28;20053;-58
2023/09/10 01:12:08;;;;;;;19.42;17.50;;;;;;;;;;2070795;28;20022;-61
2023/09/10 01:13:45;;;;;;;19.33;17.27;;;;;;;;;;2069058;28;20046;-60
2023/09/10 01:15:04;;;;;;;19.77;17.65;;;;;;;;;;2069074;28;20059;-60
2023/09/10 01:16:37;;;;;;;19.75;17.77;;;;;;;;;;2069432;28;20031;-60
2023/09/10 01:18:02;;;;;;;20.95;18.70;;;;;;;;;;2070486;28;20030;-60
2023/09/10 01:19:45;;;;;;;20.33;18.27;;;;;;;;;;2062051;28;20396;-60
2023/09/10 01:21:07;;;;;;;20.17;18.13;;;;;;;;;;2070555;28;20030;-60
2023/09/10 01:22:43;;;;;;;20.10;17.55;;;;;;;;;;2070144;28;20018;-59
2023/09/10 01:24:05;;;;;;;18.60;16.63;;;;;;;;;;2070204;28;20101;-61
2023/09/10 01:25:24;;;;;;;19.95;18.00;;;;;;;;;;2070448;28;20065;-62
2023/09/10 01:26:53;;;;;;;20.00;18.10;;;;;;;;;;2068525;28;20034;-61
2023/09/10 01:28:12;;;;;;;20.23;18.20;;;;;;;;;;2070372;28;20049;-59
2023/09/10 01:29:33;;;;;;;22.50;20.20;;;;;;;;;;2070408;28;20030;-60
2023/09/10 01:30:52;;;;;;;19.70;17.65;;;;;;;;;;2069386;28;20018;-60
2023/09/10 01:32:20;;;;;;;20.45;18.30;;;;;;;;;;2070934;28;20403;-60
2023/09/10 01:33:41;;;;;;;21.73;19.65;;;;;;;;;;2069572;28;20037;-59
2023/09/10 01:35:06;;;;;;;22.08;19.88;;;;;;;;;;2069716;28;20101;-60
2023/09/10 01:36:31;;;;;;;24.90;22.25;;;;;;;;;;2071024;28;20442;-60
2023/09/10 01:37:59;;;;;;;21.00;18.90;;;;;;;;;;2071002;28;20034;-60
2023/09/10 01:39:20;;;;;;;20.88;18.75;;;;;;;;;;2070807;28;20379;-62
2023/09/10 01:40:42;;;;;;;22.48;20.02;;;;;;;;;;2070107;28;20022;-60
2023/09/10 01:42:02;;;;;;;21.00;18.90;;;;;;;;;;2071087;28;20042;-60
2023/09/10 01:43:21;;;;;;;21.58;19.45;;;;;;;;;;2068618;28;20033;-61
2023/09/10 01:44:41;;;;;;;22.02;19.83;;;;;;;;;;2067776;28;20214;-60
2023/09/10 01:46:01;;;;;;;22.67;20.40;;;;;;;;;;2067206;28;20362;-59
2023/09/10 01:47:20;;;;;;;22.75;20.55;;;;;;;;;;2066437;28;20022;-60
2023/09/10 01:48:39;;;;;;;25.08;22.40;;;;;;;;;;2065127;28;20363;-64
2023/09/10 01:49:58;;;;;;;21.20;19.25;;;;;;;;;;2058770;28;20026;-60
2023/09/10 01:51:17;;;;;;;24.00;20.48;;;;;;;;;;2064207;28;20500;-61
2023/09/10 01:52:36;;;;;;;21.50;19.48;;;;;;;;;;2065995;28;20041;-61
2023/09/10 01:53:55;;;;;;;23.23;20.23;;;;;;;;;;2067054;28;20174;-60
2023/09/10 01:55:14;;;;;;;25.77;21.98;;;;;;;;;;2067407;28;20042;-60
2023/09/10 01:56:33;;;;;;;23.10;20.60;;;;;;;;;;2069060;28;20485;-59
2023/09/10 01:57:53;;;;;;;23.30;21.00;;;;;;;;;;2070730;28;20046;-60
2023/09/10 01:59:12;;;;;;;23.42;20.98;;;;;;;;;;2070043;28;20053;-59
2023/09/10 02:00:31;;;;;;;25.35;22.52;;;;;;;;;;2070607;28;20034;-59
2023/09/10 02:01:50;;;;;;;22.92;20.63;;;;;;;;;;2072145;28;20323;-60
2023/09/10 02:03:09;;;;;;;22.88;20.60;;;;;;;;;;2070196;28;20495;-60
2023/09/10 02:04:28;;;;;;;25.38;22.77;;;;;;;;;;2071670;28;20144;-59
2023/09/10 02:05:47;;;;;;;26.63;23.52;;;;;;;;;;2070719;28;20394;-59
2023/09/10 02:07:06;;;;;;;25.90;23.20;;;;;;;;;;2069514;28;20025;-59
2023/09/10 02:08:25;;;;;;;22.92;20.52;;;;;;;;;;2069919;28;20418;-58
2023/09/10 02:09:44;;;;;;;24.48;21.85;;;;;;;;;;2069747;28;20078;-59
2023/09/10 02:11:04;;;;;;;29.00;24.88;;;;;;;;;;2068552;28;20495;-61
2023/09/10 02:12:23;;;;;;;24.33;21.83;;;;;;;;;;2065931;28;20490;-60
2023/09/10 02:13:42;;;;;;;25.52;22.88;;;;;;;;;;2066478;28;20101;-60
2023/09/10 02:15:03;;;;;;;26.02;21.98;;;;;;;;;;2068537;28;20065;-60
2023/09/10 02:16:22;;;;;;;24.77;22.42;;;;;;;;;;2069445;28;20038;-61
2023/09/10 02:17:41;;;;;;;24.05;21.75;;;;;;;;;;2070399;28;20041;-60
2023/09/10 02:19:02;;;;;;;21.45;19.25;;;;;;;;;;2069242;28;20030;-59
2023/09/10 02:20:21;;;;;;;24.50;22.08;;;;;;;;;;2060300;28;20038;-59
2023/09/10 02:21:40;;;;;;;24.75;21.98;;;;;;;;;;2066444;28;20085;-60
2023/09/10 02:22:59;;;;;;;23.88;20.55;;;;;;;;;;2060744;28;20927;-60
2023/09/10 02:24:18;;;;;;;24.05;21.52;;;;;;;;;;2066343;28;20061;-59
2023/09/10 02:25:37;;;;;;;24.40;21.98;;;;;;;;;;2070689;28;20471;-59
2023/09/10 02:26:55;;;;;;;22.27;20.13;;;;;;;;;;2069514;28;20479;-60
2023/09/10 02:28:14;;;;;;;23.67;21.23;;;;;;;;;;2069175;28;20482;-60
2023/09/10 02:29:33;;;;;;;22.20;20.05;;;;;;;;;;2069792;28;20109;-60
2023/09/10 02:30:52;;;;;;;22.73;20.52;;;;;;;;;;2070932;28;20026;-59
2023/09/10 02:32:11;;;;;;;22.05;20.00;;;;;;;;;;2069196;28;20639;-59
2023/09/10 02:33:30;;;;;;;22.17;19.98;;;;;;;;;;2067863;28;20034;-59
2023/09/10 02:34:51;;;;;;;21.45;19.30;;;;;;;;;;2070326;28;20025;-61
2023/09/10 02:36:10;;;;;;;21.70;19.60;;;;;;;;;;2069176;28;20932;-60
2023/09/10 02:37:30;;;;;;;18.77;17.10;;;;;;;;;;2069305;28;20030;-60
2023/09/10 02:38:49;;;;;;;21.88;19.73;;;;;;;;;;2068443;28;20507;-59
2023/09/10 02:40:09;;;;;;;20.15;18.27;;;;;;;;;;2070283;28;20112;-60
2023/09/10 02:41:28;;;;;;;20.27;18.38;;;;;;;;;;2070580;28;20030;-58
2023/09/10 02:42:47;;;;;;;19.98;18.00;;;;;;;;;;2070202;28;20069;-59
2023/09/10 02:44:06;;;;;;;19.27;17.50;;;;;;;;;;2070178;28;20065;-60
2023/09/10 02:45:25;;;;;;;20.88;18.77;;;;;;;;;;2070127;28;20410;-59
2023/09/10 02:46:44;;;;;;;20.38;18.48;;;;;;;;;;2070681;28;20112;-57
2023/09/10 02:48:03;;;;;;;18.55;16.75;;;;;;;;;;2071128;28;20116;-60
2023/09/10 02:49:21;;;;;;;17.63;16.13;;;;;;;;;;2069071;28;20025;-59
2023/09/10 02:50:40;;;;;;;18.80;17.08;;;;;;;;;;2069061;28;20030;-59
2023/09/10 02:51:59;;;;;;;20.48;18.33;;;;;;;;;;2069292;28;20113;-60
2023/09/10 02:53:18;;;;;;;19.58;17.63;;;;;;;;;;2069737;28;20109;-60
2023/09/10 02:54:37;;;;;;;20.13;18.42;;;;;;;;;;2070110;28;20045;-59
2023/09/10 02:56:00;;;;;;;18.95;17.15;;;;;;;;;;2069467;28;20033;-59
2023/09/10 02:57:19;;;;;;;19.60;17.77;;;;;;;;;;2069775;28;20116;-59
2023/09/10 02:58:39;;;;;;;19.23;17.20;;;;;;;;;;2070262;28;20056;-65
2023/09/10 02:59:58;;;;;;;19.10;17.25;;;;;;;;;;2069449;28;20057;-59
2023/09/10 03:01:17;;;;;;;20.38;18.38;;;;;;;;;;2068913;28;20038;-60
2023/09/10 03:02:36;;;;;;;18.63;17.02;;;;;;;;;;2070108;28;20030;-59
2023/09/10 03:03:55;;;;;;;20.73;18.83;;;;;;;;;;2062180;28;20022;-59
2023/09/10 03:05:13;;;;;;;20.80;18.95;;;;;;;;;;2067145;28;20030;-58
2023/09/10 03:06:32;;;;;;;21.05;18.90;;;;;;;;;;2070193;28;20395;-61
2023/09/10 03:07:53;;;;;;;20.33;17.52;;;;;;;;;;2069431;28;20053;-64
2023/09/10 03:09:13;;;;;;;19.38;17.58;;;;;;;;;;2070569;28;20383;-59
2023/09/10 03:10:34;;;;;;;19.75;17.85;;;;;;;;;;2068492;28;20427;-57
2023/09/10 03:11:57;;;;;;;20.85;18.60;;;;;;;;;;2069017;28;20549;-60
2023/09/10 03:13:16;;;;;;;20.05;18.23;;;;;;;;;;2061054;28;20030;-59
2023/09/10 03:14:35;;;;;;;21.83;19.42;;;;;;;;;;2067071;28;20042;-60
2023/09/10 03:15:54;;;;;;;19.83;17.88;;;;;;;;;;2069998;28;20045;-58
2023/09/10 03:17:13;;;;;;;20.60;18.67;;;;;;;;;;2069594;28;20046;-60
2023/09/10 03:18:32;;;;;;;21.55;19.42;;;;;;;;;;2068581;28;20034;-60
2023/09/10 03:19:51;;;;;;;22.23;20.15;;;;;;;;;;2068398;28;20034;-59
2023/09/10 03:21:10;;;;;;;23.25;20.95;;;;;;;;;;2069201;28;20403;-59
2023/09/10 03:22:29;;;;;;;21.95;19.83;;;;;;;;;;2060613;28;20507;-59
2023/09/10 03:23:48;;;;;;;21.70;19.40;;;;;;;;;;2065594;28;20491;-59
2023/09/10 03:25:07;;;;;;;23.05;20.95;;;;;;;;;;2070849;28;20033;-60
2023/09/10 03:26:26;;;;;;;21.02;19.00;;;;;;;;;;2071472;28;20034;-59
2023/09/10 03:27:45;;;;;;;23.73;21.45;;;;;;;;;;2070433;28;20029;-59
2023/09/10 03:29:04;;;;;;;22.58;20.33;;;;;;;;;;2064961;28;20026;-59
2023/09/10 03:30:23;;;;;;;20.73;18.80;;;;;;;;;;2060627;28;20038;-59
2023/09/10 03:31:42;;;;;;;23.58;21.05;;;;;;;;;;2061767;28;20066;-58
2023/09/10 03:33:01;;;;;;;24.75;22.35;;;;;;;;;;2060594;28;20034;-59
2023/09/10 03:34:21;;;;;;;21.27;19.15;;;;;;;;;;2063263;28;20425;-59
2023/09/10 03:35:40;;;;;;;23.67;20.88;;;;;;;;;;2062687;28;20125;-59
2023/09/10 03:36:59;;;;;;;23.95;21.13;;;;;;;;;;2061515;28;20050;-59
2023/09/10 03:38:17;;;;;;;21.42;19.23;;;;;;;;;;2061193;28;20026;-59
2023/09/10 03:39:36;;;;;;;21.77;19.45;;;;;;;;;;2060658;28;20030;-59
2023/09/10 03:40:55;;;;;;;20.73;18.80;;;;;;;;;;2060389;28;20026;-59
2023/09/10 03:42:16;;;;;;;23.70;21.30;;;;;;;;;;2062366;28;20391;-60
2023/09/10 03:43:35;;;;;;;21.75;19.75;;;;;;;;;;2061791;28;20034;-59
2023/09/10 03:44:54;;;;;;;21.65;19.45;;;;;;;;;;2062316;28;20022;-59
2023/09/10 03:46:13;;;;;;;20.13;18.27;;;;;;;;;;2063040;28;20213;-60
2023/09/10 03:47:33;;;;;;;20.95;18.77;;;;;;;;;;2062044;28;20058;-59
2023/09/10 03:48:53;;;;;;;22.67;20.48;;;;;;;;;;2059021;28;20042;-59
2023/09/10 03:50:12;;;;;;;20.75;18.77;;;;;;;;;;2059209;28;20407;-59
2023/09/10 03:51:31;;;;;;;20.48;18.58;;;;;;;;;;2062271;28;20034;-59
2023/09/10 03:52:50;;;;;;;21.67;19.15;;;;;;;;;;2062492;28;20113;-59
2023/09/10 03:54:11;;;;;;;22.58;20.38;;;;;;;;;;2062013;28;20030;-58
2023/09/10 03:55:30;;;;;;;21.98;19.95;;;;;;;;;;2060633;28;20034;-60
2023/09/10 03:56:49;;;;;;;20.10;18.23;;;;;;;;;;2059073;28;20167;-59
2023/09/10 03:58:09;;;;;;;21.60;19.55;;;;;;;;;;2062477;28;20458;-59
2023/09/10 03:59:29;;;;;;;22.30;20.17;;;;;;;;;;2062280;28;20034;-59
2023/09/10 04:00:48;;;;;;;22.35;19.90;;;;;;;;;;2062042;28;20340;-60
2023/09/10 04:02:07;;;;;;;26.27;21.17;;;;;;;;;;2063038;28;20484;-59
2023/09/10 04:03:27;;;;;;;21.83;19.70;;;;;;;;;;2063469;28;20125;-60
2023/09/10 04:04:46;;;;;;;25.30;21.48;;;;;;;;;;2061693;28;20026;-60
2023/09/10 04:06:05;;;;;;;24.73;22.23;;;;;;;;;;2064740;28;20026;-59
2023/09/10 04:07:24;;;;;;;21.08;19.08;;;;;;;;;;2062607;28;20113;-58
2023/09/10 04:08:43;;;;;;;22.60;20.50;;;;;;;;;;2056249;28;20085;-59
2023/09/10 04:10:02;;;;;;;23.70;21.48;;;;;;;;;;2061391;28;20030;-61
2023/09/10 04:11:21;;;;;;;24.23;21.67;;;;;;;;;;2058772;28;20023;-60
2023/09/10 04:12:40;;;;;;;23.17;20.98;;;;;;;;;;2059538;28;20046;-59
2023/09/10 04:13:59;;;;;;;25.35;22.73;;;;;;;;;;2062298;28;20589;-59
2023/09/10 04:15:18;;;;;;;21.83;19.50;;;;;;;;;;2060555;28;20153;-60
2023/09/10 04:16:37;;;;;;;22.05;19.98;;;;;;;;;;2064482;28;20030;-58
2023/09/10 04:17:56;;;;;;;21.63;19.38;;;;;;;;;;2062031;28;20034;-59
2023/09/10 04:19:15;;;;;;;22.98;20.77;;;;;;;;;;2064306;28;20026;-60
2023/09/10 04:20:34;;;;;;;20.70;18.67;;;;;;;;;;2065309;28;20030;-59
2023/09/10 04:21:53;;;;;;;22.92;20.60;;;;;;;;;;2063827;28;20046;-60
2023/09/10 04:23:13;;;;;;;20.33;18.48;;;;;;;;;;2064004;28;20027;-59
2023/09/10 04:24:33;;;;;;;22.65;20.35;;;;;;;;;;2064101;28;20054;-58
2023/09/10 04:25:52;;;;;;;21.55;19.42;;;;;;;;;;2064235;28;20503;-60
2023/09/10 04:27:11;;;;;;;22.88;20.67;;;;;;;;;;2055664;28;20113;-60
2023/09/10 04:28:30;;;;;;;22.30;20.13;;;;;;;;;;2066743;28;20046;-59
2023/09/10 04:29:49;;;;;;;19.35;17.45;;;;;;;;;;2066486;28;20050;-59
2023/09/10 04:31:13;;;;;;;26.75;21.58;;;;;;;;;;2067459;28;20116;-60
2023/09/10 04:32:31;;;;;;;24.83;21.05;;;;;;;;;;2069582;28;20120;-60
2023/09/10 04:33:50;;;;;;;24.83;20.83;;;;;;;;;;2068179;28;20270;-60
2023/09/10 04:35:10;;;;;;;30.35;21.77;;;;;;;;;;2067898;28;20026;-59
2023/09/10 04:36:29;;;;;;;24.40;21.30;;;;;;;;;;2069786;28;20507;-60
2023/09/10 04:37:49;;;;;;;27.55;22.77;;;;;;;;;;2069464;28;20034;-59
2023/09/10 04:39:08;;;;;;;33.03;22.35;;;;;;;;;;2065729;28;20383;-60
2023/09/10 04:40:28;;;;;;;27.75;22.45;;;;;;;;;;2070678;28;20033;-59
2023/09/10 04:41:47;;;;;;;31.92;22.30;;;;;;;;;;2072028;28;20494;-61
2023/09/10 04:43:05;;;;;;;23.65;21.05;;;;;;;;;;2070408;28;20127;-59
2023/09/10 04:44:24;;;;;;;25.80;20.58;;;;;;;;;;2070149;28;20026;-60
2023/09/10 04:45:43;;;;;;;24.95;21.55;;;;;;;;;;2073456;28;20030;-59
2023/09/10 04:47:03;;;;;;;21.63;19.38;;;;;;;;;;2070993;28;20030;-59
2023/09/10 04:48:22;;;;;;;27.77;21.45;;;;;;;;;;2071822;28;20033;-58
2023/09/10 04:49:41;;;;;;;22.20;20.00;;;;;;;;;;2068516;28;20038;-59
2023/09/10 04:51:00;;;;;;;21.08;19.08;;;;;;;;;;2074010;28;20018;-60
2023/09/10 04:52:19;;;;;;;21.85;19.60;;;;;;;;;;2071065;28;20425;-59
2023/09/10 04:53:38;;;;;;;22.67;20.25;;;;;;;;;;2068276;28;20030;-61
2023/09/10 04:54:57;;;;;;;25.10;21.75;;;;;;;;;;2069294;28;20042;-59
2023/09/10 04:56:16;;;;;;;23.13;19.65;;;;;;;;;;2064711;28;20492;-61
2023/09/10 04:57:35;;;;;;;22.67;20.33;;;;;;;;;;2067902;28;20034;-60
2023/09/10 04:58:54;;;;;;;25.13;21.80;;;;;;;;;;2072305;28;20030;-59
2023/09/10 05:00:14;;;;;;;24.25;21.65;;;;;;;;;;2071105;28;20059;-60
2023/09/10 05:01:32;;;;;;;23.42;20.92;;;;;;;;;;2071347;28;20026;-60
2023/09/10 05:02:52;;;;;;;25.75;23.05;;;;;;;;;;2073209;28;20057;-61
2023/09/10 05:04:11;;;;;;;23.48;19.60;;;;;;;;;;2071870;28;20030;-59
2023/09/10 05:05:29;;;;;;;22.85;20.52;;;;;;;;;;2072666;28;20034;-66
2023/09/10 05:06:48;;;;;;;24.00;20.90;;;;;;;;;;2071128;28;20383;-59
2023/09/10 05:08:07;;;;;;;22.95;20.45;;;;;;;;;;2071924;28;20145;-63
2023/09/10 05:09:26;;;;;;;27.33;22.88;;;;;;;;;;2070239;28;20034;-59
2023/09/10 05:10:47;;;;;;;25.25;22.55;;;;;;;;;;2072115;28;20061;-59
2023/09/10 05:12:06;;;;;;;23.48;20.42;;;;;;;;;;2062496;28;20030;-59
2023/09/10 05:13:25;;;;;;;25.50;22.27;;;;;;;;;;2066797;28;20604;-61
2023/09/10 05:14:44;;;;;;;21.40;19.15;;;;;;;;;;2063562;28;20050;-60
2023/09/10 05:16:03;;;;;;;23.45;20.92;;;;;;;;;;2068216;28;20030;-60
2023/09/10 05:17:22;;;;;;;25.20;22.50;;;;;;;;;;2067171;28;21701;-59
2023/09/10 05:18:41;;;;;;;25.55;22.55;;;;;;;;;;2069834;28;20046;-59
2023/09/10 05:20:00;;;;;;;25.50;22.80;;;;;;;;;;2070716;28;20030;-60
2023/09/10 05:21:20;;;;;;;24.23;21.70;;;;;;;;;;2072901;28;20025;-59
2023/09/10 05:22:39;;;;;;;24.90;21.63;;;;;;;;;;2072591;28;20034;-62
2023/09/10 05:23:58;;;;;;;22.30;19.95;;;;;;;;;;2069728;28;20022;-62
2023/09/10 05:25:17;;;;;;;21.80;19.58;;;;;;;;;;2062833;28;20038;-59
2023/09/10 05:26:35;;;;;;;21.60;19.25;;;;;;;;;;2067661;28;20038;-60
2023/09/10 05:27:54;;;;;;;25.17;22.52;;;;;;;;;;2067281;28;20116;-58
2023/09/10 05:29:13;;;;;;;28.13;22.13;;;;;;;;;;2071672;28;20034;-60
2023/09/10 05:30:35;;;;;;;23.67;21.02;;;;;;;;;;2072301;28;20025;-59
2023/09/10 05:31:54;;;;;;;22.48;20.02;;;;;;;;;;2071663;28;20121;-59
2023/09/10 05:33:13;;;;;;;22.73;20.42;;;;;;;;;;2069312;28;20114;-59
2023/09/10 05:34:32;;;;;;;21.90;19.70;;;;;;;;;;2070318;28;20038;-60
2023/09/10 05:35:58;;;;;;;21.50;19.33;;;;;;;;;;2068141;28;20030;-60
2023/09/10 05:37:17;;;;;;;21.38;19.30;;;;;;;;;;2070817;28;20038;-59
2023/09/10 05:38:36;;;;;;;22.67;20.25;;;;;;;;;;2067932;28;20430;-60
2023/09/10 05:39:55;;;;;;;23.02;20.67;;;;;;;;;;2070720;28;20046;-59
2023/09/10 05:41:14;;;;;;;23.60;20.13;;;;;;;;;;2067241;28;20041;-60
2023/09/10 05:42:33;;;;;;;22.33;20.05;;;;;;;;;;2070741;28;20655;-59
2023/09/10 05:43:52;;;;;;;19.25;17.45;;;;;;;;;;2070104;28;20030;-59
2023/09/10 05:45:11;;;;;;;20.10;18.05;;;;;;;;;;2069219;28;20038;-58
2023/09/10 05:46:30;;;;;;;21.70;19.55;;;;;;;;;;2069536;28;20046;-60
2023/09/10 05:47:49;;;;;;;20.65;18.75;;;;;;;;;;2072933;28;20097;-59
2023/09/10 05:49:08;;;;;;;20.58;18.48;;;;;;;;;;2072770;28;20395;-59
2023/09/10 05:50:27;;;;;;;20.00;18.08;;;;;;;;;;2070483;28;20422;-60
2023/09/10 05:51:46;;;;;;;19.08;17.17;;;;;;;;;;2070396;28;20390;-61
2023/09/10 05:53:05;;;;;;;19.98;18.00;;;;;;;;;;2071322;28;20065;-60
2023/09/10 05:54:24;;;;;;;19.45;17.63;;;;;;;;;;2070904;28;20498;-60
2023/09/10 05:55:43;;;;;;;19.58;17.63;;;;;;;;;;2071847;28;20052;-59
2023/09/10 05:57:03;;;;;;;19.58;17.70;;;;;;;;;;2067152;28;20025;-59
2023/09/10 05:58:22;;;;;;;20.38;17.95;;;;;;;;;;2069519;28;20042;-59
2023/09/10 05:59:40;;;;;;;20.75;18.75;;;;;;;;;;2071013;28;20121;-60
2023/09/10 06:00:59;;;;;;;19.63;17.73;;;;;;;;;;2069965;28;20033;-60
2023/09/10 06:02:18;;;;;;;22.85;20.45;;;;;;;;;;2070758;28;20034;-60
2023/09/10 06:03:37;;;;;;;21.88;19.67;;;;;;;;;;2070218;28;20038;-60
2023/09/10 06:04:56;;;;;;;20.63;18.45;;;;;;;;;;2070850;28;20029;-61
2023/09/10 06:06:15;;;;;;;20.73;18.63;;;;;;;;;;2071808;28;20034;-60
2023/09/10 06:07:34;;;;;;;23.48;21.17;;;;;;;;;;2072082;28;20033;-59
2023/09/10 06:08:53;;;;;;;20.77;18.73;;;;;;;;;;2070035;28;20128;-60
2023/09/10 06:10:12;;;;;;;23.23;20.92;;;;;;;;;;2070414;28;20160;-60
2023/09/10 06:11:31;;;;;;;18.83;17.23;;;;;;;;;;2070168;28;20590;-60
2023/09/10 06:12:50;;;;;;;21.23;19.27;;;;;;;;;;2071162;28;20499;-60
2023/09/10 06:14:09;;;;;;;21.80;19.77;;;;;;;;;;2068605;28;20065;-60
2023/09/10 06:15:28;;;;;;;21.42;19.33;;;;;;;;;;2069053;28;20491;-59
2023/09/10 06:16:47;;;;;;;20.08;18.08;;;;;;;;;;2070858;28;20030;-60
2023/09/10 06:18:07;;;;;;;19.58;17.77;;;;;;;;;;2062530;28;20034;-60
2023/09/10 06:19:25;;;;;;;19.52;17.65;;;;;;;;;;2066205;28;20038;-59
2023/09/10 06:20:44;;;;;;;18.85;17.05;;;;;;;;;;2071263;28;20383;-59
2023/09/10 06:22:03;;;;;;;21.50;19.23;;;;;;;;;;2071166;28;20482;-59
2023/09/10 06:23:22;;;;;;;21.15;19.10;;;;;;;;;;2069522;28;20527;-60
2023/09/10 06:24:41;;;;;;;19.05;17.25;;;;;;;;;;2069038;28;20148;-60
2023/09/10 06:26:00;;;;;;;22.25;20.05;;;;;;;;;;2060804;28;20023;-59
2023/09/10 06:27:19;;;;;;;19.10;17.40;;;;;;;;;;2064636;28;20034;-60
2023/09/10 06:28:38;;;;;;;19.05;17.33;;;;;;;;;;2072441;28;20073;-61
2023/09/10 06:29:57;;;;;;;22.05;20.05;;;;;;;;;;2071312;28;20030;-60
2023/09/10 06:31:16;;;;;;;19.80;17.95;;;;;;;;;;2069368;28;20025;-58
2023/09/10 06:32:34;;;;;;;19.90;17.88;;;;;;;;;;2070480;28;20021;-59
2023/09/10 06:33:54;;;;;;;18.42;16.67;;;;;;;;;;2066802;28;20061;-60
2023/09/10 06:35:13;;;;;;;18.70;17.05;;;;;;;;;;2069190;28;20563;-59
2023/09/10 06:36:32;;;;;;;18.08;16.35;;;;;;;;;;2071746;28;20490;-60
2023/09/10 06:37:51;;;;;;;19.15;17.25;;;;;;;;;;2066369;28;20487;-60
2023/09/10 06:39:10;;;;;;;19.45;17.75;;;;;;;;;;2061235;28;20496;-59
2023/09/10 06:40:28;;;;;;;19.20;17.38;;;;;;;;;;2067002;28;20021;-59
2023/09/10 06:41:47;;;;;;;18.73;16.85;;;;;;;;;;2068299;28;20068;-60
2023/09/10 06:43:08;;;;;;;18.73;17.02;;;;;;;;;;2067592;28;20030;-60
2023/09/10 06:44:27;;;;;;;19.33;17.52;;;;;;;;;;2069042;28;20022;-60
2023/09/10 06:45:46;;;;;;;18.52;16.90;;;;;;;;;;2070120;28;20030;-60
2023/09/10 06:47:05;;;;;;;19.92;18.10;;;;;;;;;;2070510;28;20541;-61
2023/09/10 06:48:24;;;;;;;20.30;18.48;;;;;;;;;;2071120;28;20073;-60
2023/09/10 06:49:43;;;;;;;20.42;18.58;;;;;;;;;;2069110;28;21066;-60
2023/09/10 06:51:02;;;;;;;18.70;16.90;;;;;;;;;;2067487;28;20017;-60
2023/09/10 06:52:21;;;;;;;18.30;16.80;;;;;;;;;;2068035;28;20022;-61
2023/09/10 06:53:40;;;;;;;21.98;19.90;;;;;;;;;;2066558;28;20022;-60
2023/09/10 06:54:58;;;;;;;20.85;18.92;;;;;;;;;;2067596;28;20018;-60
2023/09/10 06:56:18;;;;;;;20.70;18.85;;;;;;;;;;2069830;28;20485;-59
2023/09/10 06:57:37;;;;;;;19.75;17.88;;;;;;;;;;2070211;28;20034;-60
2023/09/10 06:58:56;;;;;;;19.75;17.88;;;;;;;;;;2062702;28;20105;-59
2023/09/10 07:00:15;;;;;;;19.48;17.65;;;;;;;;;;2061646;28;20035;-59
2023/09/10 07:01:37;;;;;;;18.65;17.02;;;;;;;;;;2064052;28;20022;-60
2023/09/10 07:02:56;;;;;;;19.25;17.60;;;;;;;;;;2068059;28;20041;-60
2023/09/10 07:04:21;;;;;;;17.02;15.52;;;;;;;;;;2070574;28;20022;-60
2023/09/10 07:05:41;;;;;;;19.77;18.00;;;;;;;;;;2066331;28;20022;-60
2023/09/10 07:07:00;;;;;;;17.88;16.27;;;;;;;;;;2067921;28;20487;-60
2023/09/10 07:08:19;;;;;;;17.98;16.38;;;;;;;;;;2060099;28;20030;-60
2023/09/10 07:09:38;;;;;;;17.17;15.80;;;;;;;;;;2056224;28;20078;-60
2023/09/10 07:10:57;;;;;;;19.27;17.27;;;;;;;;;;2066543;28;20572;-60
2023/09/10 07:12:17;;;;;;;17.58;16.08;;;;;;;;;;2068683;28;20022;-60
2023/09/10 07:13:38;;;;;;;17.75;16.25;;;;;;;;;;2069621;28;20022;-59
2023/09/10 07:14:57;;;;;;;17.05;15.65;;;;;;;;;;2067858;28;20034;-61
2023/09/10 07:16:16;;;;;;;17.35;15.85;;;;;;;;;;2069931;28;20101;-60
2023/09/10 07:17:36;;;;;;;17.00;15.40;;;;;;;;;;2069824;28;20434;-58
2023/09/10 07:18:55;;;;;;;16.98;15.48;;;;;;;;;;2069521;28;20030;-59
2023/09/10 07:20:14;;;;;;;17.30;15.57;;;;;;;;;;2067951;28;20113;-60
2023/09/10 07:21:33;;;;;;;17.08;15.52;;;;;;;;;;2068927;28;20037;-59
2023/09/10 07:22:52;;;;;;;16.65;15.23;;;;;;;;;;2071642;28;20022;-61
2023/09/10 07:24:11;;;;;;;16.73;15.32;;;;;;;;;;2067093;28;20053;-60
2023/09/10 07:25:30;;;;;;;15.98;14.77;;;;;;;;;;2071133;28;20026;-59
2023/09/10 07:26:49;;;;;;;16.48;15.13;;;;;;;;;;2069599;28;20030;-60
2023/09/10 07:28:08;;;;;;;17.02;15.63;;;;;;;;;;2060941;28;20034;-60
2023/09/10 07:29:27;;;;;;;14.88;13.73;;;;;;;;;;2064029;28;20116;-61
2023/09/10 07:30:46;;;;;;;16.60;15.30;;;;;;;;;;2069910;28;20112;-60
2023/09/10 07:32:05;;;;;;;17.00;15.48;;;;;;;;;;2068086;28;20061;-61
2023/09/10 07:33:24;;;;;;;17.00;15.50;;;;;;;;;;2070715;28;20037;-60
2023/09/10 07:34:43;;;;;;;16.20;14.90;;;;;;;;;;2068250;28;20104;-60
2023/09/10 07:36:02;;;;;;;16.02;14.73;;;;;;;;;;2072245;28;20117;-60
2023/09/10 07:37:21;;;;;;;15.88;14.40;;;;;;;;;;2072247;28;20496;-60
2023/09/10 07:38:39;;;;;;;14.82;13.55;;;;;;;;;;2072213;28;20030;-59
2023/09/10 07:39:58;;;;;;;16.85;15.38;;;;;;;;;;2071726;28;20394;-60
2023/09/10 07:41:17;;;;;;;15.82;14.23;;;;;;;;;;2069002;28;20034;-61
2023/09/10 07:42:36;;;;;;;15.70;14.43;;;;;;;;;;2069706;28;20050;-59